createdAt,value
2019-01-11T00:01:00.281Z,2.70
2019-01-11T00:03:29.398Z,2.70
2019-01-11T00:05:58.527Z,2.80
2019-01-11T00:08:27.651Z,2.80
2019-01-11T00:10:56.786Z,2.70
2019-01-11T00:13:25.870Z,2.80
2019-01-11T00:15:54.994Z,2.70
2019-01-11T00:18:24.280Z,2.70
2019-01-11T00:20:53.427Z,2.60
2019-01-11T00:23:22.562Z,2.60
2019-01-11T00:25:51.682Z,2.60
2019-01-11T00:28:20.770Z,2.60
2019-01-11T00:30:49.860Z,2.70
2019-01-11T00:33:18.994Z,2.70
2019-01-11T00:35:48.155Z,2.80
2019-01-11T00:38:17.255Z,2.80
2019-01-11T00:40:46.346Z,2.70
2019-01-11T00:43:15.462Z,2.80
2019-01-11T00:45:44.546Z,2.70
2019-01-11T00:48:13.692Z,2.70
2019-01-11T00:50:42.781Z,2.70
2019-01-11T00:53:12.061Z,2.70
2019-01-11T00:55:41.158Z,2.60
2019-01-11T00:58:10.337Z,2.60
2019-01-11T01:00:39.421Z,2.60
2019-01-11T01:03:08.496Z,2.60
2019-01-11T01:05:37.587Z,2.60
2019-01-11T01:08:06.674Z,2.60
2019-01-11T01:10:35.783Z,2.60
2019-01-11T01:13:04.926Z,2.60
2019-01-11T01:15:34.000Z,2.60
2019-01-11T01:18:03.134Z,2.60
2019-01-11T01:20:32.215Z,2.60
2019-01-11T01:23:01.311Z,2.60
2019-01-11T01:25:30.421Z,2.60
2019-01-11T01:27:59.562Z,2.60
2019-01-11T01:30:28.652Z,2.60
2019-01-11T01:32:57.794Z,2.60
2019-01-11T01:35:26.928Z,2.70
2019-01-11T01:37:56.023Z,2.70
2019-01-11T01:40:25.111Z,2.70
2019-01-11T01:42:54.285Z,2.70
2019-01-11T01:45:23.368Z,2.70
2019-01-11T01:47:52.487Z,2.70
2019-01-11T01:50:21.610Z,2.70
2019-01-11T01:52:50.766Z,2.70
2019-01-11T01:55:19.892Z,2.60
2019-01-11T01:57:48.976Z,2.70
2019-01-11T02:00:18.703Z,2.70
2019-01-11T02:02:48.339Z,2.70
2019-01-11T02:05:17.515Z,2.70
2019-01-11T02:07:46.627Z,2.70
2019-01-11T02:10:15.766Z,2.80
2019-01-11T02:12:44.921Z,2.80
2019-01-11T02:15:13.992Z,2.80
2019-01-11T02:17:43.129Z,2.80
2019-01-11T02:20:16.720Z,2.80
2019-01-11T02:22:45.915Z,2.70
2019-01-11T02:25:15.372Z,2.70
2019-01-11T02:27:44.486Z,2.70
2019-01-11T02:30:23.921Z,2.70
2019-01-11T02:32:53.411Z,2.80
2019-01-11T02:35:22.713Z,2.80
2019-01-11T02:37:51.791Z,2.80
2019-01-11T02:40:20.871Z,2.80
2019-01-11T02:42:49.973Z,2.90
2019-01-11T02:45:20.203Z,2.90
2019-01-11T02:47:49.287Z,2.90
2019-01-11T02:50:18.393Z,2.90
2019-01-11T02:52:47.606Z,2.90
2019-01-11T02:55:16.700Z,2.90
2019-01-11T02:57:45.879Z,2.90
2019-01-11T03:00:19.810Z,2.90
2019-01-11T03:02:48.923Z,2.90
2019-01-11T03:05:18.228Z,2.90
2019-01-11T03:07:47.438Z,2.90
2019-01-11T03:10:18.250Z,2.90
2019-01-11T03:12:47.381Z,2.90
2019-01-11T03:15:17.025Z,2.90
2019-01-11T03:17:46.101Z,2.90
2019-01-11T03:20:15.424Z,2.90
2019-01-11T03:22:44.547Z,2.90
2019-01-11T03:25:13.766Z,2.90
2019-01-11T03:27:42.859Z,2.90
2019-01-11T03:30:14.636Z,3.00
2019-01-11T03:32:43.861Z,3.00
2019-01-11T03:35:16.550Z,3.00
2019-01-11T03:37:47.409Z,3.00
2019-01-11T03:40:17.683Z,3.00
2019-01-11T03:42:46.788Z,3.00
2019-01-11T03:45:16.721Z,3.00
2019-01-11T03:47:45.799Z,3.00
2019-01-11T03:50:15.546Z,3.00
2019-01-11T03:52:44.647Z,3.00
2019-01-11T03:55:14.967Z,3.00
2019-01-11T03:57:44.052Z,3.10
2019-01-11T04:00:15.734Z,3.10
2019-01-11T04:02:44.838Z,3.20
2019-01-11T04:05:13.959Z,3.20
2019-01-11T04:07:43.091Z,3.20
2019-01-11T04:10:23.447Z,3.20
2019-01-11T04:12:52.575Z,3.20
2019-01-11T04:15:22.733Z,3.30
2019-01-11T04:18:22.940Z,3.20
2019-01-11T04:20:52.426Z,3.20
2019-01-11T04:23:21.563Z,3.20
2019-01-11T04:25:50.665Z,3.30
2019-01-11T04:28:19.767Z,3.30
2019-01-11T04:30:48.855Z,3.40
2019-01-11T04:33:17.936Z,3.30
2019-01-11T04:35:47.052Z,3.30
2019-01-11T04:38:16.176Z,3.30
2019-01-11T04:40:45.288Z,3.40
2019-01-11T04:43:14.392Z,3.40
2019-01-11T04:45:43.487Z,3.40
2019-01-11T04:48:12.609Z,3.40
2019-01-11T04:50:41.707Z,3.40
2019-01-11T04:53:10.819Z,3.40
2019-01-11T04:55:39.924Z,3.40
2019-01-11T04:58:09.029Z,3.40
2019-01-11T05:00:38.223Z,3.50
2019-01-11T05:03:07.402Z,3.50
2019-01-11T05:05:36.494Z,3.50
2019-01-11T05:08:05.603Z,3.50
2019-01-11T05:10:34.718Z,3.50
2019-01-11T05:13:22.740Z,3.50
2019-01-11T05:15:51.940Z,3.50
2019-01-11T05:18:21.064Z,3.60
2019-01-11T05:20:50.181Z,3.60
2019-01-11T05:23:19.258Z,3.50
2019-01-11T05:25:48.527Z,3.60
2019-01-11T05:28:17.631Z,3.50
2019-01-11T05:30:46.709Z,3.50
2019-01-11T05:33:15.794Z,3.60
2019-01-11T05:35:44.906Z,3.60
2019-01-11T05:38:13.983Z,3.60
2019-01-11T05:40:43.142Z,3.60
2019-01-11T05:43:12.244Z,3.60
2019-01-11T05:45:41.347Z,3.60
2019-01-11T05:48:10.582Z,3.60
2019-01-11T05:50:39.724Z,3.60
2019-01-11T05:53:08.852Z,3.60
2019-01-11T05:55:48.797Z,3.60
2019-01-11T05:58:42.993Z,3.70
2019-01-11T06:01:12.786Z,3.70
2019-01-11T06:03:41.956Z,3.70
2019-01-11T06:06:11.071Z,3.70
2019-01-11T06:08:40.571Z,3.70
2019-01-11T06:11:09.713Z,3.70
2019-01-11T06:13:38.841Z,3.80
2019-01-11T06:16:08.462Z,3.80
2019-01-11T06:18:37.609Z,3.80
2019-01-11T06:21:06.798Z,3.80
2019-01-11T06:23:36.024Z,3.80
2019-01-11T06:26:05.193Z,3.90
2019-01-11T06:28:34.328Z,3.90
2019-01-11T06:31:03.420Z,3.90
2019-01-11T06:33:32.579Z,4.00
2019-01-11T06:36:01.736Z,4.00
2019-01-11T06:38:31.122Z,4.00
2019-01-11T06:41:00.447Z,4.00
2019-01-11T06:43:29.762Z,4.10
2019-01-11T06:45:58.994Z,4.10
2019-01-11T06:48:46.767Z,4.10
2019-01-11T06:51:16.161Z,4.10
2019-01-11T06:53:46.095Z,4.20
2019-01-11T06:56:17.725Z,4.20
2019-01-11T06:58:47.097Z,4.20
2019-01-11T07:01:16.384Z,4.20
2019-01-11T07:03:45.683Z,4.30
2019-01-11T07:06:15.067Z,4.30
2019-01-11T07:08:44.138Z,4.30
2019-01-11T07:11:13.356Z,4.30
2019-01-11T07:13:42.515Z,4.30
2019-01-11T07:16:11.784Z,4.30
2019-01-11T07:18:40.994Z,4.40
2019-01-11T07:21:10.818Z,4.40
2019-01-11T07:23:45.090Z,4.40
2019-01-11T07:26:14.376Z,4.50
2019-01-11T07:28:43.668Z,4.40
2019-01-11T07:31:19.308Z,4.50
2019-01-11T07:33:49.013Z,4.50
2019-01-11T07:36:32.788Z,4.50
2019-01-11T07:39:03.364Z,4.50
2019-01-11T07:41:32.669Z,4.60
2019-01-11T07:44:04.503Z,4.60
2019-01-11T07:46:33.960Z,4.60
2019-01-11T07:49:05.385Z,4.60
2019-01-11T07:51:34.747Z,4.60
2019-01-11T07:54:05.817Z,4.70
2019-01-11T07:56:35.062Z,4.70
2019-01-11T07:59:04.408Z,4.70
2019-01-11T08:01:37.122Z,4.80
2019-01-11T08:04:06.625Z,4.80
2019-01-11T08:06:35.957Z,4.80
2019-01-11T08:09:10.329Z,4.90
2019-01-11T08:11:39.904Z,4.90
2019-01-11T08:14:09.894Z,4.90
2019-01-11T08:17:15.022Z,5.00
2019-01-11T08:19:44.464Z,4.90
2019-01-11T08:22:28.091Z,5.00
2019-01-11T08:25:02.660Z,5.10
2019-01-11T08:27:34.590Z,5.00
2019-01-11T08:30:03.807Z,5.00
2019-01-11T08:32:33.108Z,5.10
2019-01-11T08:35:04.084Z,5.10
2019-01-11T08:37:33.346Z,5.10
2019-01-11T08:40:02.664Z,5.10
2019-01-11T08:42:31.897Z,5.10
2019-01-11T08:45:01.194Z,5.10
2019-01-11T08:47:30.458Z,5.10
2019-01-11T08:49:59.780Z,5.20
2019-01-11T08:52:29.178Z,5.20
2019-01-11T08:54:58.445Z,5.30
2019-01-11T08:57:28.224Z,5.30
2019-01-11T08:59:57.569Z,5.40
2019-01-11T09:02:26.815Z,5.40
2019-01-11T09:04:56.287Z,5.50
2019-01-11T09:07:25.477Z,5.60
2019-01-11T09:09:54.794Z,5.50
2019-01-11T09:12:24.264Z,5.60
2019-01-11T09:14:54.796Z,5.50
2019-01-11T09:17:26.421Z,5.60
2019-01-11T09:19:55.390Z,5.60
2019-01-11T09:22:27.382Z,5.70
2019-01-11T09:24:56.663Z,5.80
2019-01-11T09:27:26.198Z,5.90
2019-01-11T09:29:55.501Z,5.90
2019-01-11T09:32:25.639Z,5.90
2019-01-11T09:34:54.932Z,5.90
2019-01-11T09:37:24.150Z,5.90
2019-01-11T09:39:53.878Z,6.00
2019-01-11T09:42:23.356Z,6.00
2019-01-11T09:44:53.109Z,6.10
2019-01-11T09:47:22.516Z,6.30
2019-01-11T09:49:51.844Z,6.30
2019-01-11T09:52:21.274Z,6.30
2019-01-11T09:54:50.667Z,6.40
2019-01-11T09:57:20.189Z,6.50
2019-01-11T09:59:49.466Z,6.50
2019-01-11T10:02:35.917Z,6.40
2019-01-11T10:05:06.949Z,6.40
2019-01-11T10:07:36.470Z,6.40
2019-01-11T10:10:07.852Z,6.40
2019-01-11T10:12:37.087Z,6.50
2019-01-11T10:15:07.056Z,6.60
2019-01-11T10:17:36.294Z,6.70
2019-01-11T10:20:06.057Z,6.70
2019-01-11T10:22:36.337Z,6.80
2019-01-11T10:25:08.101Z,6.80
2019-01-11T10:27:37.550Z,6.90
2019-01-11T10:30:12.016Z,6.90
2019-01-11T10:32:41.359Z,7.00
2019-01-11T10:35:11.002Z,7.10
2019-01-11T10:37:40.119Z,7.20
2019-01-11T10:40:10.406Z,7.20
2019-01-11T10:42:39.682Z,7.40
2019-01-11T10:45:12.394Z,7.60
2019-01-11T10:47:41.523Z,7.60
2019-01-11T10:50:12.643Z,7.40
2019-01-11T10:52:41.900Z,7.50
2019-01-11T10:55:11.950Z,7.60
2019-01-11T10:57:41.170Z,7.70
2019-01-11T11:00:14.236Z,7.80
2019-01-11T11:02:43.390Z,7.80
2019-01-11T11:05:12.576Z,7.80
2019-01-11T11:07:41.770Z,7.80
2019-01-11T11:10:12.095Z,7.70
2019-01-11T11:12:44.912Z,7.70
2019-01-11T11:15:14.792Z,7.70
2019-01-11T11:17:45.138Z,7.60
2019-01-11T11:20:15.754Z,7.60
2019-01-11T11:22:45.015Z,7.50
2019-01-11T11:25:16.594Z,7.50
2019-01-11T11:27:45.830Z,7.60
2019-01-11T11:30:15.761Z,7.60
2019-01-11T11:33:02.047Z,7.60
2019-01-11T11:35:31.952Z,7.70
2019-01-11T11:38:01.259Z,7.70
2019-01-11T11:40:33.466Z,7.70
2019-01-11T11:43:02.702Z,7.80
2019-01-11T11:45:32.048Z,7.90
2019-01-11T11:48:01.250Z,7.90
2019-01-11T11:50:30.441Z,7.90
2019-01-11T11:52:59.655Z,7.90
2019-01-11T11:55:28.860Z,7.90
2019-01-11T11:57:58.083Z,7.90
2019-01-11T12:00:27.840Z,7.80
2019-01-11T12:02:57.174Z,7.90
2019-01-11T12:05:26.383Z,7.90
2019-01-11T12:07:55.834Z,7.90
2019-01-11T12:10:25.244Z,7.90
2019-01-11T12:12:54.449Z,8.00
2019-01-11T12:15:23.675Z,8.00
2019-01-11T12:17:52.880Z,7.90
2019-01-11T12:20:27.588Z,7.90
2019-01-11T12:22:56.722Z,8.00
2019-01-11T12:25:25.964Z,8.10
2019-01-11T12:27:55.106Z,8.10
2019-01-11T12:30:24.421Z,8.10
2019-01-11T12:32:53.736Z,8.10
2019-01-11T12:35:22.841Z,8.20
2019-01-11T12:37:52.514Z,8.20
2019-01-11T12:40:21.712Z,8.20
2019-01-11T12:42:50.833Z,8.20
2019-01-11T12:45:20.167Z,8.20
2019-01-11T12:47:49.380Z,8.20
2019-01-11T12:50:21.146Z,8.10
2019-01-11T12:52:50.255Z,8.20
2019-01-11T12:55:19.403Z,8.20
2019-01-11T12:57:48.551Z,8.20
2019-01-11T13:00:17.897Z,8.20
2019-01-11T13:02:47.048Z,8.20
2019-01-11T13:05:21.500Z,8.30
2019-01-11T13:07:50.649Z,8.50
2019-01-11T13:10:20.416Z,8.60
2019-01-11T13:12:51.666Z,8.60
2019-01-11T13:15:22.649Z,8.70
2019-01-11T13:17:51.822Z,8.70
2019-01-11T13:20:21.944Z,8.80
2019-01-11T13:22:51.355Z,8.80
2019-01-11T13:25:20.597Z,8.80
2019-01-11T13:27:49.811Z,8.80
2019-01-11T13:30:19.186Z,8.80
2019-01-11T13:32:48.438Z,8.80
2019-01-11T13:35:17.575Z,8.90
2019-01-11T13:37:46.704Z,8.90
2019-01-11T13:40:26.162Z,8.90
2019-01-11T13:42:55.495Z,8.90
2019-01-11T13:45:24.679Z,8.90
2019-01-11T13:47:53.822Z,8.90
2019-01-11T13:50:42.659Z,8.90
2019-01-11T13:53:21.222Z,8.90
2019-01-11T13:55:50.936Z,8.90
2019-01-11T13:58:20.063Z,8.90
2019-01-11T14:00:49.211Z,8.90
2019-01-11T14:03:18.453Z,8.90
2019-01-11T14:05:47.577Z,8.90
2019-01-11T14:08:16.680Z,8.90
2019-01-11T14:10:45.771Z,8.90
2019-01-11T14:13:15.445Z,8.90
2019-01-11T14:15:44.675Z,8.90
2019-01-11T14:18:13.798Z,8.90
2019-01-11T14:20:43.012Z,8.80
2019-01-11T14:23:12.344Z,8.80
2019-01-11T14:25:41.570Z,8.70
2019-01-11T14:28:10.776Z,8.70
2019-01-11T14:30:41.074Z,8.60
2019-01-11T14:33:10.379Z,8.60
2019-01-11T14:35:39.502Z,8.60
2019-01-11T14:38:08.629Z,8.50
2019-01-11T14:40:37.747Z,8.50
2019-01-11T14:43:06.899Z,8.50
2019-01-11T14:45:36.037Z,8.50
2019-01-11T14:48:05.192Z,8.40
2019-01-11T14:50:34.228Z,8.40
2019-01-11T14:53:03.354Z,8.40
2019-01-11T14:55:32.513Z,8.30
2019-01-11T14:58:01.759Z,8.30
2019-01-11T15:00:30.932Z,8.30
2019-01-11T15:03:00.068Z,8.30
2019-01-11T15:05:29.384Z,8.30
2019-01-11T15:07:58.506Z,8.30
2019-01-11T15:10:27.620Z,8.30
2019-01-11T15:12:56.736Z,8.30
2019-01-11T15:15:25.948Z,8.30
2019-01-11T15:17:55.065Z,8.30
2019-01-11T15:20:24.309Z,8.30
2019-01-11T15:22:53.390Z,8.30
2019-01-11T15:25:22.574Z,8.30
2019-01-11T15:27:51.687Z,8.30
2019-01-11T15:30:21.228Z,8.30
2019-01-11T15:32:50.400Z,8.30
2019-01-11T15:35:19.824Z,8.30
2019-01-11T15:37:48.989Z,8.30
2019-01-11T15:40:23.405Z,8.30
2019-01-11T15:42:52.538Z,8.30
2019-01-11T15:45:21.698Z,8.30
2019-01-11T15:47:50.822Z,8.30
2019-01-11T15:50:48.780Z,8.30
2019-01-11T15:53:18.062Z,8.30
2019-01-11T15:55:47.363Z,8.30
2019-01-11T15:58:16.536Z,8.30
2019-01-11T16:00:47.408Z,8.30
2019-01-11T16:03:16.580Z,8.30
2019-01-11T16:05:45.775Z,8.30
2019-01-11T16:08:14.955Z,8.30
2019-01-11T16:11:15.471Z,8.30
2019-01-11T16:14:14.649Z,8.30
2019-01-11T16:16:54.108Z,8.30
2019-01-11T16:19:23.233Z,8.30
2019-01-11T16:21:52.335Z,8.30
2019-01-11T16:24:21.440Z,8.30
2019-01-11T16:26:50.570Z,8.30
2019-01-11T16:29:19.716Z,8.30
2019-01-11T16:31:48.888Z,8.30
2019-01-11T16:34:18.001Z,8.20
2019-01-11T16:36:47.141Z,8.20
2019-01-11T16:39:16.335Z,8.10
2019-01-11T16:41:45.479Z,8.10
2019-01-11T16:44:14.612Z,8.10
2019-01-11T16:46:43.741Z,8.10
2019-01-11T16:49:12.925Z,8.10
2019-01-11T16:51:42.042Z,8.20
2019-01-11T16:54:11.207Z,8.20
2019-01-11T16:56:40.498Z,8.10
2019-01-11T16:59:09.686Z,8.10
2019-01-11T17:01:38.823Z,8.00
2019-01-11T17:04:07.996Z,8.10
2019-01-11T17:06:37.122Z,8.10
2019-01-11T17:09:08.332Z,8.10
2019-01-11T17:11:37.465Z,8.20
2019-01-11T17:14:06.929Z,8.20
2019-01-11T17:16:36.089Z,8.20
2019-01-11T17:19:05.235Z,8.20
2019-01-11T17:21:34.440Z,8.10
2019-01-11T17:24:03.578Z,8.10
2019-01-11T17:26:32.731Z,8.00
2019-01-11T17:29:01.896Z,8.00
2019-01-11T17:31:31.006Z,8.10
2019-01-11T17:34:00.153Z,8.00
2019-01-11T17:36:29.336Z,8.00
2019-01-11T17:38:58.470Z,8.00
2019-01-11T17:41:27.660Z,8.00
2019-01-11T17:43:56.848Z,8.00
2019-01-11T17:46:26.113Z,8.00
2019-01-11T17:48:55.274Z,7.90
2019-01-11T17:51:24.520Z,7.90
2019-01-11T17:53:53.717Z,7.90
2019-01-11T17:56:22.868Z,7.90
2019-01-11T17:58:51.967Z,7.90
2019-01-11T18:01:21.147Z,7.80
2019-01-11T18:03:50.279Z,7.80
2019-01-11T18:06:19.418Z,7.80
2019-01-11T18:08:48.579Z,7.90
2019-01-11T18:11:17.692Z,7.90
2019-01-11T18:13:46.886Z,7.90
2019-01-11T18:16:16.026Z,7.90
2019-01-11T18:18:45.149Z,7.90
2019-01-11T18:21:14.336Z,7.90
2019-01-11T18:23:43.490Z,7.90
2019-01-11T18:26:12.654Z,7.80
2019-01-11T18:28:41.848Z,7.80
2019-01-11T18:31:11.106Z,7.90
2019-01-11T18:33:40.219Z,7.90
2019-01-11T18:36:09.362Z,7.90
2019-01-11T18:38:38.609Z,7.90
2019-01-11T18:41:07.817Z,7.90
2019-01-11T18:43:36.972Z,7.90
2019-01-11T18:46:06.067Z,7.90
2019-01-11T18:48:35.194Z,7.90
2019-01-11T18:51:04.313Z,7.80
2019-01-11T18:53:33.400Z,7.70
2019-01-11T18:56:05.577Z,7.60
2019-01-11T18:58:33.376Z,7.50
2019-01-11T19:01:02.566Z,7.50
2019-01-11T19:03:31.717Z,7.50
2019-01-11T19:06:01.007Z,7.50
2019-01-11T19:08:30.115Z,7.50
2019-01-11T19:10:59.274Z,7.40
2019-01-11T19:13:28.377Z,7.40
2019-01-11T19:15:57.580Z,7.40
2019-01-11T19:18:26.779Z,7.40
2019-01-11T19:20:55.942Z,7.40
2019-01-11T19:23:26.438Z,7.40
2019-01-11T19:25:55.694Z,7.40
2019-01-11T19:28:24.847Z,7.40
2019-01-11T19:30:53.964Z,7.40
2019-01-11T19:33:23.141Z,7.40
2019-01-11T19:35:52.295Z,7.40
2019-01-11T19:38:22.439Z,7.50
2019-01-11T19:40:51.751Z,7.50
2019-01-11T19:43:20.908Z,7.50
2019-01-11T19:45:50.065Z,7.60
2019-01-11T19:48:19.195Z,7.60
2019-01-11T19:50:48.445Z,7.70
2019-01-11T19:53:17.609Z,7.70
2019-01-11T19:55:46.764Z,7.70
2019-01-11T19:58:15.891Z,7.60
2019-01-11T20:00:45.122Z,7.60
2019-01-11T20:03:14.336Z,7.60
2019-01-11T20:05:43.597Z,7.60
2019-01-11T20:08:12.790Z,7.60
2019-01-11T20:10:41.913Z,7.60
2019-01-11T20:13:11.036Z,7.60
2019-01-11T20:15:40.204Z,7.60
2019-01-11T20:18:09.352Z,7.60
2019-01-11T20:20:38.594Z,7.60
2019-01-11T20:23:07.779Z,7.70
2019-01-11T20:25:36.991Z,7.60
2019-01-11T20:28:06.100Z,7.70
2019-01-11T20:30:35.328Z,7.70
2019-01-11T20:33:04.464Z,7.70
2019-01-11T20:35:33.644Z,7.70
2019-01-11T20:38:02.838Z,7.70
2019-01-11T20:40:32.045Z,7.70
2019-01-11T20:43:01.226Z,7.70
2019-01-11T20:45:30.430Z,7.70
2019-01-11T20:47:59.573Z,7.70
2019-01-11T20:50:28.745Z,7.70
2019-01-11T20:52:58.080Z,7.70
2019-01-11T20:55:27.215Z,7.70
2019-01-11T20:57:56.649Z,7.70
2019-01-11T21:00:35.017Z,7.70
2019-01-11T21:03:07.802Z,7.70
2019-01-11T21:05:37.049Z,7.70
2019-01-11T21:08:06.277Z,7.60
2019-01-11T21:10:35.405Z,7.60
2019-01-11T21:13:04.642Z,7.60
2019-01-11T21:15:33.745Z,7.60
2019-01-11T21:18:02.913Z,7.60
2019-01-11T21:20:32.090Z,7.60
2019-01-11T21:23:01.274Z,7.60
2019-01-11T21:25:30.444Z,7.60
2019-01-11T21:27:59.679Z,7.60
2019-01-11T21:30:32.151Z,7.60
2019-01-11T21:33:01.343Z,7.60
2019-01-11T21:35:30.693Z,7.50
2019-01-11T21:37:59.874Z,7.50
2019-01-11T21:40:29.015Z,7.50
2019-01-11T21:42:58.223Z,7.50
2019-01-11T21:45:27.449Z,7.50
2019-01-11T21:47:56.757Z,7.50
2019-01-11T21:50:28.975Z,7.50
2019-01-11T21:52:58.525Z,7.50
2019-01-11T21:55:27.731Z,7.50
2019-01-11T21:57:56.832Z,7.60
2019-01-11T22:00:31.651Z,7.60
2019-01-11T22:03:00.844Z,7.50
2019-01-11T22:05:30.095Z,7.50
2019-01-11T22:07:59.250Z,7.50
2019-01-11T22:10:28.447Z,7.50
2019-01-11T22:12:57.603Z,7.50
2019-01-11T22:15:26.803Z,7.50
2019-01-11T22:17:55.967Z,7.50
2019-01-11T22:20:25.135Z,7.50
2019-01-11T22:22:54.262Z,7.50
2019-01-11T22:25:23.454Z,7.40
2019-01-11T22:27:52.581Z,7.40
2019-01-11T22:30:29.888Z,7.40
2019-01-11T22:32:53.667Z,7.40
2019-01-11T22:35:22.867Z,7.40
2019-01-11T22:37:51.998Z,7.40
2019-01-11T22:40:22.770Z,7.40
2019-01-11T22:42:57.144Z,7.40
2019-01-11T22:45:26.338Z,7.40
2019-01-11T22:47:55.449Z,7.40
2019-01-11T22:50:24.745Z,7.40
2019-01-11T22:52:53.910Z,7.40
2019-01-11T22:55:23.033Z,7.40
2019-01-11T22:57:52.195Z,7.40
2019-01-11T23:01:08.910Z,7.40
2019-01-11T23:03:44.382Z,7.30
2019-01-11T23:06:31.108Z,7.30
2019-01-11T23:09:00.251Z,7.30
2019-01-11T23:11:55.748Z,7.30
2019-01-11T23:14:24.899Z,7.30
2019-01-11T23:17:28.314Z,7.30
2019-01-11T23:19:57.449Z,7.30
2019-01-11T23:22:26.600Z,7.30
2019-01-11T23:24:55.691Z,7.30
2019-01-11T23:27:24.864Z,7.30
2019-01-11T23:29:53.996Z,7.30
2019-01-11T23:32:23.170Z,7.30
2019-01-11T23:34:52.313Z,7.30
2019-01-11T23:37:21.441Z,7.30
2019-01-11T23:39:50.593Z,7.30
2019-01-11T23:42:19.711Z,7.30
2019-01-11T23:44:48.837Z,7.30
2019-01-11T23:47:18.050Z,7.30
2019-01-11T23:49:47.231Z,7.30
2019-01-11T23:52:16.351Z,7.30
2019-01-11T23:54:45.442Z,7.20
2019-01-11T23:57:14.549Z,7.30
2019-01-11T23:59:43.653Z,7.20
